createdAt,value
2018-08-10T00:00:40.159Z,24.40
2018-08-10T00:03:10.297Z,23.07
2018-08-10T00:05:40.239Z,25.93
2018-08-10T00:08:09.090Z,25.73
2018-08-10T00:10:37.793Z,25.03
2018-08-10T00:13:06.614Z,23.77
2018-08-10T00:15:35.518Z,23.40
2018-08-10T00:18:04.413Z,26.40
2018-08-10T00:20:33.249Z,26.40
2018-08-10T00:23:01.940Z,25.10
2018-08-10T00:25:30.756Z,23.77
2018-08-10T00:27:59.506Z,25.40
2018-08-10T00:30:28.275Z,25.47
2018-08-10T00:32:57.111Z,25.57
2018-08-10T00:35:25.763Z,25.97
2018-08-10T00:37:54.808Z,24.83
2018-08-10T00:40:23.989Z,26.80
2018-08-10T00:42:52.878Z,28.90
2018-08-10T00:45:21.696Z,31.33
2018-08-10T00:47:50.453Z,27.10
2018-08-10T00:50:19.151Z,28.70
2018-08-10T00:52:48.421Z,24.50
2018-08-10T00:55:18.368Z,26.70
2018-08-10T00:57:47.744Z,26.73
2018-08-10T01:00:22.986Z,25.33
2018-08-10T01:02:52.491Z,28.70
2018-08-10T01:05:21.214Z,25.93
2018-08-10T01:07:50.053Z,30.33
2018-08-10T01:10:19.769Z,25.13
2018-08-10T01:12:48.786Z,29.07
2018-08-10T01:15:17.936Z,28.47
2018-08-10T01:17:47.126Z,28.47
2018-08-10T01:20:20.503Z,28.40
2018-08-10T01:22:54.923Z,28.63
2018-08-10T01:25:25.364Z,28.20
2018-08-10T01:27:59.666Z,28.77
2018-08-10T01:30:29.571Z,29.30
2018-08-10T01:32:58.885Z,31.83
2018-08-10T01:35:28.338Z,28.10
2018-08-10T01:37:58.241Z,32.07
2018-08-10T01:40:27.078Z,28.73
2018-08-10T01:42:55.738Z,31.10
2018-08-10T01:45:24.465Z,27.60
2018-08-10T01:47:53.343Z,30.73
2018-08-10T01:50:22.387Z,36.77
2018-08-10T01:52:51.026Z,33.77
2018-08-10T01:55:19.871Z,34.20
2018-08-10T01:57:48.540Z,30.27
2018-08-10T02:00:17.196Z,34.00
2018-08-10T02:02:45.878Z,33.93
2018-08-10T02:05:15.295Z,35.33
2018-08-10T02:07:44.594Z,34.23
2018-08-10T02:10:14.941Z,34.47
2018-08-10T02:12:44.443Z,36.67
2018-08-10T02:15:15.735Z,38.77
2018-08-10T02:17:44.506Z,40.07
2018-08-10T02:20:14.791Z,36.00
2018-08-10T02:22:43.756Z,33.93
2018-08-10T02:25:13.993Z,33.50
2018-08-10T02:27:43.738Z,34.53
2018-08-10T02:30:13.795Z,34.73
2018-08-10T02:32:43.166Z,34.00
2018-08-10T02:35:12.016Z,34.37
2018-08-10T02:37:41.290Z,30.37
2018-08-10T02:40:17.213Z,32.67
2018-08-10T02:42:47.009Z,32.60
2018-08-10T02:45:16.191Z,31.30
2018-08-10T02:47:45.551Z,28.93
2018-08-10T02:50:14.476Z,27.23
2018-08-10T02:52:43.318Z,31.13
2018-08-10T02:55:12.688Z,30.00
2018-08-10T02:57:41.665Z,28.57
2018-08-10T03:00:12.858Z,33.20
2018-08-10T03:02:42.121Z,30.20
2018-08-10T03:05:11.023Z,31.90
2018-08-10T03:07:40.243Z,30.83
2018-08-10T03:10:10.855Z,34.37
2018-08-10T03:12:39.607Z,37.57
2018-08-10T03:15:12.926Z,38.50
2018-08-10T03:17:41.950Z,38.03
2018-08-10T03:20:11.090Z,37.17
2018-08-10T03:22:40.149Z,40.63
2018-08-10T03:25:10.653Z,39.47
2018-08-10T03:27:39.445Z,37.37
2018-08-10T03:30:10.078Z,36.87
2018-08-10T03:32:39.035Z,31.10
2018-08-10T03:35:07.847Z,34.70
2018-08-10T03:37:37.103Z,31.50
2018-08-10T03:40:08.743Z,31.87
2018-08-10T03:42:37.395Z,35.17
2018-08-10T03:45:06.558Z,32.00
2018-08-10T03:47:35.678Z,31.37
2018-08-10T03:50:05.646Z,35.10
2018-08-10T03:52:34.358Z,35.53
2018-08-10T03:55:03.143Z,35.50
2018-08-10T03:57:31.755Z,32.63
2018-08-10T04:00:00.521Z,34.07
2018-08-10T04:02:29.225Z,30.70
2018-08-10T04:04:57.988Z,34.13
2018-08-10T04:07:26.758Z,33.37
2018-08-10T04:09:55.497Z,28.93
2018-08-10T04:12:24.160Z,33.43
2018-08-10T04:14:52.863Z,34.30
2018-08-10T04:17:25.524Z,36.87
2018-08-10T04:19:55.018Z,36.03
2018-08-10T04:22:24.960Z,34.40
2018-08-10T04:24:53.664Z,37.40
2018-08-10T04:27:22.482Z,36.10
2018-08-10T04:29:51.191Z,37.70
2018-08-10T04:32:20.131Z,37.63
2018-08-10T04:34:48.815Z,36.03
2018-08-10T04:37:17.947Z,34.47
2018-08-10T04:39:46.691Z,31.33
2018-08-10T04:42:15.365Z,35.60
2018-08-10T04:44:43.983Z,32.27
2018-08-10T04:47:12.715Z,30.47
2018-08-10T04:49:41.395Z,29.60
2018-08-10T04:52:10.016Z,27.97
2018-08-10T04:54:38.700Z,27.03
2018-08-10T04:57:07.482Z,27.87
2018-08-10T04:59:36.118Z,31.37
2018-08-10T05:02:05.904Z,25.33
2018-08-10T05:04:34.561Z,28.40
2018-08-10T05:07:03.413Z,24.60
2018-08-10T05:09:32.073Z,27.13
2018-08-10T05:12:00.658Z,23.63
2018-08-10T05:14:29.243Z,23.37
2018-08-10T05:16:57.938Z,25.33
2018-08-10T05:19:26.747Z,20.80
2018-08-10T05:21:55.418Z,26.03
2018-08-10T05:24:24.163Z,22.37
2018-08-10T05:26:52.923Z,22.47
2018-08-10T05:29:21.738Z,25.53
2018-08-10T05:31:50.397Z,24.27
2018-08-10T05:34:19.069Z,20.90
2018-08-10T05:36:47.812Z,25.13
2018-08-10T05:39:16.575Z,22.40
2018-08-10T05:41:45.198Z,26.00
2018-08-10T05:44:13.850Z,20.00
2018-08-10T05:46:42.497Z,22.13
2018-08-10T05:49:11.181Z,21.17
2018-08-10T05:51:39.799Z,19.23
2018-08-10T05:54:08.486Z,23.30
2018-08-10T05:56:38.308Z,20.97
2018-08-10T05:59:07.059Z,21.60
2018-08-10T06:01:35.765Z,21.97
2018-08-10T06:04:04.986Z,21.20
2018-08-10T06:06:33.494Z,22.00
2018-08-10T06:09:02.215Z,22.27
2018-08-10T06:11:30.929Z,21.50
2018-08-10T06:13:59.656Z,21.30
2018-08-10T06:16:28.398Z,21.35
2018-08-10T06:18:57.039Z,20.80
2018-08-10T06:21:25.635Z,21.80
2018-08-10T06:23:54.281Z,22.87
2018-08-10T06:26:23.140Z,19.20
2018-08-10T06:28:51.946Z,19.82
2018-08-10T06:31:20.791Z,19.55
2018-08-10T06:33:49.520Z,22.15
2018-08-10T06:36:18.253Z,18.92
2018-08-10T06:38:46.986Z,18.77
2018-08-10T06:41:15.645Z,18.57
2018-08-10T06:43:44.338Z,18.82
2018-08-10T06:46:12.991Z,19.10
2018-08-10T06:48:42.076Z,19.27
2018-08-10T06:51:10.751Z,19.60
2018-08-10T06:53:39.531Z,17.87
2018-08-10T06:56:09.032Z,18.87
2018-08-10T06:58:37.713Z,17.92
2018-08-10T07:01:06.544Z,18.15
2018-08-10T07:03:35.193Z,17.82
2018-08-10T07:06:03.876Z,17.10
2018-08-10T07:08:33.657Z,19.50
2018-08-10T07:11:02.493Z,18.05
2018-08-10T07:13:31.298Z,18.70
2018-08-10T07:16:00.001Z,21.80
2018-08-10T07:18:28.691Z,18.07
2018-08-10T07:20:57.323Z,17.42
2018-08-10T07:23:26.004Z,16.93
2018-08-10T07:25:54.708Z,20.82
2018-08-10T07:28:23.468Z,17.42
2018-08-10T07:30:52.337Z,19.80
2018-08-10T07:33:21.379Z,16.73
2018-08-10T07:35:50.225Z,16.57
2018-08-10T07:38:19.091Z,16.00
2018-08-10T07:40:47.932Z,15.03
2018-08-10T07:43:16.851Z,16.50
2018-08-10T07:45:45.601Z,15.15
2018-08-10T07:48:14.255Z,16.35
2018-08-10T07:50:43.156Z,15.50
2018-08-10T07:53:12.171Z,15.83
2018-08-10T07:55:40.964Z,15.68
2018-08-10T07:58:09.959Z,16.23
2018-08-10T08:00:38.790Z,15.20
2018-08-10T08:03:07.749Z,13.98
2018-08-10T08:05:36.525Z,15.08
2018-08-10T08:08:05.557Z,15.25
2018-08-10T08:10:34.451Z,15.15
2018-08-10T08:13:03.150Z,15.60
2018-08-10T08:15:31.986Z,13.08
2018-08-10T08:18:00.848Z,11.97
2018-08-10T08:20:29.544Z,12.60
2018-08-10T08:23:03.828Z,13.20
2018-08-10T08:25:34.019Z,13.30
2018-08-10T08:28:02.826Z,13.05
2018-08-10T08:30:31.556Z,13.25
2018-08-10T08:33:00.320Z,12.93
2018-08-10T08:35:29.016Z,12.90
2018-08-10T08:38:13.321Z,12.98
2018-08-10T08:40:42.229Z,11.83
2018-08-10T08:43:11.127Z,12.00
2018-08-10T08:46:00.943Z,11.25
2018-08-10T08:48:30.985Z,12.23
2018-08-10T08:51:02.536Z,12.10
2018-08-10T08:53:31.506Z,11.70
2018-08-10T08:56:02.873Z,11.28
2018-08-10T08:58:32.233Z,11.73
2018-08-10T09:01:01.302Z,11.22
2018-08-10T09:03:46.909Z,11.83
2018-08-10T09:06:17.820Z,11.90
2018-08-10T09:09:34.341Z,12.03
2018-08-10T09:12:03.107Z,11.33
2018-08-10T09:14:43.913Z,11.50
2018-08-10T09:17:13.198Z,11.03
2018-08-10T09:19:42.391Z,10.95
2018-08-10T09:22:11.719Z,11.22
2018-08-10T09:24:41.199Z,11.18
2018-08-10T09:27:10.345Z,11.18
2018-08-10T09:29:39.207Z,10.90
2018-08-10T09:32:08.057Z,11.20
2018-08-10T09:34:36.821Z,10.78
2018-08-10T09:37:06.484Z,10.60
2018-08-10T09:39:35.434Z,11.05
2018-08-10T09:42:06.438Z,11.15
2018-08-10T09:44:35.600Z,11.10
2018-08-10T09:47:05.201Z,10.82
2018-08-10T09:49:52.044Z,10.53
2018-08-10T09:52:21.102Z,11.53
2018-08-10T09:55:40.393Z,11.75
2018-08-10T09:58:18.196Z,10.93
2018-08-10T10:00:53.366Z,10.98
2018-08-10T10:03:24.456Z,11.05
2018-08-10T10:05:55.990Z,11.20
2018-08-10T10:08:25.312Z,10.20
2018-08-10T10:10:54.286Z,11.43
2018-08-10T10:13:23.038Z,11.20
2018-08-10T10:15:51.780Z,11.30
2018-08-10T10:18:20.476Z,10.70
2018-08-10T10:20:49.283Z,11.15
2018-08-10T10:23:17.974Z,11.40
2018-08-10T10:25:46.736Z,10.68
2018-08-10T10:28:16.021Z,9.95
2018-08-10T10:30:44.779Z,11.15
2018-08-10T10:33:13.555Z,11.60
2018-08-10T10:35:42.745Z,10.95
2018-08-10T10:38:12.293Z,11.05
2018-08-10T10:40:41.031Z,10.32
2018-08-10T10:43:09.709Z,11.55
2018-08-10T10:45:38.378Z,10.90
2018-08-10T10:48:07.443Z,11.38
2018-08-10T10:50:36.143Z,14.68
2018-08-10T10:53:04.931Z,11.33
2018-08-10T10:55:33.675Z,11.35
2018-08-10T10:58:02.885Z,11.73
2018-08-10T11:00:31.669Z,11.03
2018-08-10T11:03:00.372Z,11.80
2018-08-10T11:05:29.796Z,11.30
2018-08-10T11:07:58.461Z,11.30
2018-08-10T11:10:27.213Z,10.58
2018-08-10T11:12:55.918Z,9.95
2018-08-10T11:15:24.710Z,10.43
2018-08-10T11:17:53.457Z,10.10
2018-08-10T11:20:22.290Z,9.40
2018-08-10T11:22:52.383Z,8.90
2018-08-10T11:25:22.537Z,9.98
2018-08-10T11:27:51.512Z,9.35
2018-08-10T11:30:20.334Z,8.70
2018-08-10T11:32:49.503Z,11.45
2018-08-10T11:35:18.231Z,8.33
2018-08-10T11:37:46.980Z,9.60
2018-08-10T11:40:15.796Z,8.70
2018-08-10T11:42:44.633Z,8.55
2018-08-10T11:45:16.143Z,10.50
2018-08-10T11:47:45.099Z,8.95
2018-08-10T11:50:13.994Z,10.05
2018-08-10T11:52:42.746Z,8.98
2018-08-10T11:55:14.275Z,10.45
2018-08-10T11:57:44.230Z,8.83
2018-08-10T12:00:14.408Z,9.20
2018-08-10T12:02:43.520Z,9.53
2018-08-10T12:05:13.073Z,9.58
2018-08-10T12:07:41.968Z,9.48
2018-08-10T12:10:10.845Z,9.60
2018-08-10T12:12:39.695Z,9.20
2018-08-10T12:15:11.099Z,9.48
2018-08-10T12:17:40.073Z,9.30
2018-08-10T12:20:09.463Z,9.78
2018-08-10T12:22:40.218Z,9.50
2018-08-10T12:25:09.757Z,10.63
2018-08-10T12:27:39.111Z,10.03
2018-08-10T12:30:10.436Z,9.80
2018-08-10T12:32:41.175Z,10.63
2018-08-10T12:35:10.471Z,12.60
2018-08-10T12:37:39.700Z,11.25
2018-08-10T12:40:08.963Z,11.48
2018-08-10T12:42:39.525Z,11.63
2018-08-10T12:45:08.845Z,13.00
2018-08-10T12:47:37.973Z,11.70
2018-08-10T12:50:07.200Z,11.78
2018-08-10T12:52:36.045Z,11.83
2018-08-10T12:55:06.596Z,12.80
2018-08-10T12:57:35.423Z,14.85
2018-08-10T13:00:06.967Z,14.20
2018-08-10T13:02:35.774Z,13.98
2018-08-10T13:05:05.478Z,13.68
2018-08-10T13:07:34.430Z,13.32
2018-08-10T13:10:03.668Z,15.05
2018-08-10T13:12:32.431Z,13.13
2018-08-10T13:15:01.128Z,14.05
2018-08-10T13:17:29.979Z,14.45
2018-08-10T13:19:58.761Z,13.35
2018-08-10T13:22:28.212Z,13.00
2018-08-10T13:24:57.050Z,12.95
2018-08-10T13:27:25.769Z,21.30
2018-08-10T13:29:54.650Z,12.98
2018-08-10T13:32:24.191Z,13.22
2018-08-10T13:34:52.912Z,12.58
2018-08-10T13:37:21.620Z,12.23
2018-08-10T13:39:50.606Z,13.70
2018-08-10T13:42:19.383Z,12.15
2018-08-10T13:44:48.154Z,11.00
2018-08-10T13:47:16.918Z,11.65
2018-08-10T13:49:45.914Z,13.22
2018-08-10T13:52:14.728Z,10.95
2018-08-10T13:54:44.364Z,10.75
2018-08-10T13:57:13.176Z,11.33
2018-08-10T13:59:42.162Z,11.00
2018-08-10T14:02:11.155Z,11.38
2018-08-10T14:04:39.853Z,11.10
2018-08-10T14:07:08.642Z,12.82
2018-08-10T14:09:37.384Z,11.48
2018-08-10T14:12:06.125Z,12.40
2018-08-10T14:14:35.883Z,13.93
2018-08-10T14:17:04.719Z,11.57
2018-08-10T14:19:33.381Z,11.68
2018-08-10T14:22:02.099Z,15.18
2018-08-10T14:24:31.016Z,13.95
2018-08-10T14:26:59.811Z,12.95
2018-08-10T14:29:29.448Z,16.60
2018-08-10T14:31:58.209Z,13.70
2018-08-10T14:34:26.986Z,13.05
2018-08-10T14:36:55.713Z,12.50
2018-08-10T14:39:24.591Z,12.40
2018-08-10T14:41:53.434Z,13.15
2018-08-10T14:44:22.213Z,12.23
2018-08-10T14:46:51.030Z,12.95
2018-08-10T14:49:21.421Z,13.83
2018-08-10T14:51:50.236Z,11.68
2018-08-10T14:54:18.945Z,14.43
2018-08-10T14:56:47.839Z,10.50
2018-08-10T14:59:16.671Z,11.43
2018-08-10T15:01:45.519Z,10.78
2018-08-10T15:04:14.377Z,11.20
2018-08-10T15:06:43.246Z,12.40
2018-08-10T15:09:13.306Z,12.03
2018-08-10T15:11:42.983Z,11.25
2018-08-10T15:14:11.818Z,10.90
2018-08-10T15:16:41.241Z,11.73
2018-08-10T15:19:10.415Z,14.38
2018-08-10T15:21:39.181Z,11.22
2018-08-10T15:24:07.913Z,11.45
2018-08-10T15:26:36.749Z,13.30
2018-08-10T15:29:05.932Z,10.72
2018-08-10T15:31:34.764Z,10.68
2018-08-10T15:34:03.623Z,10.88
2018-08-10T15:36:32.393Z,12.88
2018-08-10T15:39:01.151Z,12.45
2018-08-10T15:41:30.026Z,9.58
2018-08-10T15:43:58.905Z,13.15
2018-08-10T15:46:27.651Z,12.15
2018-08-10T15:48:56.465Z,14.30
2018-08-10T15:51:25.145Z,12.43
2018-08-10T15:53:53.818Z,15.28
2018-08-10T15:56:22.593Z,13.55
2018-08-10T15:58:51.227Z,17.15
2018-08-10T16:01:19.957Z,15.75
2018-08-10T16:03:48.714Z,13.43
2018-08-10T16:06:17.560Z,13.80
2018-08-10T16:08:46.333Z,13.25
2018-08-10T16:11:15.133Z,14.58
2018-08-10T16:13:44.077Z,10.18
2018-08-10T16:16:12.924Z,13.05
2018-08-10T16:18:42.841Z,10.48
2018-08-10T16:21:11.641Z,10.20
2018-08-10T16:23:40.826Z,10.58
2018-08-10T16:26:09.586Z,10.25
2018-08-10T16:28:38.364Z,12.37
2018-08-10T16:31:07.714Z,9.78
2018-08-10T16:33:36.474Z,9.90
2018-08-10T16:36:05.290Z,10.15
2018-08-10T16:38:34.209Z,12.75
2018-08-10T16:41:03.090Z,11.18
2018-08-10T16:43:31.854Z,11.70
2018-08-10T16:46:00.674Z,8.10
2018-08-10T16:48:29.641Z,10.65
2018-08-10T16:50:58.544Z,9.15
2018-08-10T16:53:28.341Z,11.35
2018-08-10T16:55:57.127Z,15.50
2018-08-10T16:58:26.235Z,10.25
2018-08-10T17:00:55.057Z,13.68
2018-08-10T17:03:23.850Z,12.25
2018-08-10T17:05:52.660Z,13.70
2018-08-10T17:08:21.414Z,20.48
2018-08-10T17:10:50.879Z,9.78
2018-08-10T17:13:19.771Z,16.27
2018-08-10T17:15:48.638Z,12.82
2018-08-10T17:18:17.664Z,11.25
2018-08-10T17:20:46.576Z,11.48
2018-08-10T17:23:15.906Z,7.70
2018-08-10T17:25:46.058Z,10.28
2018-08-10T17:28:14.904Z,9.20
2018-08-10T17:30:43.731Z,12.55
2018-08-10T17:33:12.476Z,9.50
2018-08-10T17:35:43.111Z,11.75
2018-08-10T17:38:11.820Z,9.88
2018-08-10T17:40:40.507Z,8.98
2018-08-10T17:43:09.279Z,10.25
2018-08-10T17:45:38.025Z,7.90
2018-08-10T17:48:06.870Z,9.85
2018-08-10T17:51:11.598Z,8.13
2018-08-10T17:53:40.295Z,10.32
2018-08-10T17:56:09.216Z,10.68
2018-08-10T17:58:38.153Z,9.90
2018-08-10T18:01:06.878Z,8.35
2018-08-10T18:03:36.061Z,8.93
2018-08-10T18:06:04.881Z,8.63
2018-08-10T18:08:33.646Z,7.12
2018-08-10T18:11:02.578Z,7.50
2018-08-10T18:13:31.341Z,9.23
2018-08-10T18:16:00.138Z,10.00
2018-08-10T18:18:28.858Z,11.10
2018-08-10T18:20:57.597Z,9.35
2018-08-10T18:23:26.284Z,9.70
2018-08-10T18:25:55.079Z,6.85
2018-08-10T18:28:23.839Z,6.90
2018-08-10T18:30:52.533Z,13.32
2018-08-10T18:33:21.519Z,10.45
2018-08-10T18:35:50.279Z,6.75
2018-08-10T18:38:18.986Z,9.28
2018-08-10T18:40:47.623Z,12.65
2018-08-10T18:43:16.354Z,7.95
2018-08-10T18:45:45.031Z,9.53
2018-08-10T18:48:13.741Z,8.08
2018-08-10T18:50:42.578Z,12.23
2018-08-10T18:53:11.339Z,6.78
2018-08-10T18:55:40.571Z,11.18
2018-08-10T18:58:09.274Z,12.63
2018-08-10T19:00:38.082Z,7.87
2018-08-10T19:03:06.935Z,8.78
2018-08-10T19:05:35.678Z,13.93
2018-08-10T19:08:04.524Z,9.50
2018-08-10T19:10:33.379Z,8.53
2018-08-10T19:13:03.197Z,10.00
2018-08-10T19:15:31.917Z,12.33
2018-08-10T19:18:00.611Z,12.28
2018-08-10T19:20:29.363Z,7.53
2018-08-10T19:22:58.426Z,9.65
2018-08-10T19:25:27.198Z,9.85
2018-08-10T19:27:56.083Z,7.37
2018-08-10T19:30:25.153Z,11.15
2018-08-10T19:32:54.118Z,12.63
2018-08-10T19:35:22.882Z,7.72
2018-08-10T19:37:52.968Z,9.18
2018-08-10T19:40:21.867Z,6.97
2018-08-10T19:42:50.672Z,12.93
2018-08-10T19:45:19.556Z,13.53
2018-08-10T19:47:48.468Z,13.68
2018-08-10T19:50:21.671Z,10.43
2018-08-10T19:52:50.732Z,9.25
2018-08-10T19:55:20.106Z,11.33
2018-08-10T19:57:49.500Z,13.10
2018-08-10T20:00:19.451Z,9.20
2018-08-10T20:02:50.147Z,9.58
2018-08-10T20:05:18.923Z,9.18
2018-08-10T20:07:47.973Z,10.03
2018-08-10T20:10:16.967Z,13.00
2018-08-10T20:12:46.953Z,10.40
2018-08-10T20:15:17.968Z,10.00
2018-08-10T20:17:46.754Z,8.45
2018-08-10T20:20:17.468Z,12.20
2018-08-10T20:22:47.261Z,10.98
2018-08-10T20:25:17.143Z,11.20
2018-08-10T20:27:46.068Z,12.33
2018-08-10T20:30:17.300Z,9.93
2018-08-10T20:32:46.928Z,8.45
2018-08-10T20:35:18.389Z,11.73
2018-08-10T20:37:47.534Z,12.23
2018-08-10T20:40:18.512Z,13.63
2018-08-10T20:42:48.367Z,17.63
2018-08-10T20:45:18.412Z,13.30
2018-08-10T20:47:47.940Z,10.07
2018-08-10T20:50:22.144Z,12.70
2018-08-10T20:52:51.029Z,10.50
2018-08-10T20:55:20.004Z,9.83
2018-08-10T20:57:49.529Z,11.30
2018-08-10T21:00:18.449Z,12.40
2018-08-10T21:02:47.345Z,14.77
2018-08-10T21:05:16.145Z,11.63
2018-08-10T21:07:45.326Z,10.50
2018-08-10T21:10:16.120Z,14.10
2018-08-10T21:12:45.896Z,10.73
2018-08-10T21:15:15.578Z,10.80
2018-08-10T21:17:45.256Z,9.53
2018-08-10T21:20:17.132Z,9.40
2018-08-10T21:22:46.570Z,12.80
2018-08-10T21:25:19.602Z,9.97
2018-08-10T21:27:48.716Z,15.10
2018-08-10T21:30:19.473Z,11.43
2018-08-10T21:32:48.946Z,13.00
2018-08-10T21:35:18.674Z,10.80
2018-08-10T21:37:48.174Z,9.50
2018-08-10T21:40:17.951Z,9.20
2018-08-10T21:42:47.343Z,13.30
2018-08-10T21:45:16.111Z,14.20
2018-08-10T21:47:44.868Z,15.07
2018-08-10T21:50:14.492Z,9.73
2018-08-10T21:52:44.064Z,12.63
2018-08-10T21:55:13.017Z,12.77
2018-08-10T21:57:41.878Z,12.23
2018-08-10T22:00:24.333Z,8.57
2018-08-10T22:02:53.125Z,10.30
2018-08-10T22:05:21.840Z,14.20
2018-08-10T22:07:50.631Z,11.40
2018-08-10T22:10:20.446Z,12.30
2018-08-10T22:12:49.852Z,9.50
2018-08-10T22:15:24.370Z,12.50
2018-08-10T22:17:59.554Z,10.70
2018-08-10T22:20:28.344Z,11.43
2018-08-10T22:22:57.131Z,14.70
2018-08-10T22:25:26.804Z,12.57
2018-08-10T22:27:55.671Z,14.33
2018-08-10T22:30:24.431Z,12.73
2018-08-10T22:32:53.171Z,9.73
2018-08-10T22:35:21.854Z,11.63
2018-08-10T22:37:50.731Z,12.93
2018-08-10T22:40:19.620Z,13.43
2018-08-10T22:42:48.418Z,10.93
2018-08-10T22:45:17.264Z,9.90
2018-08-10T22:47:45.915Z,11.80
2018-08-10T22:50:14.724Z,12.57
2018-08-10T22:52:44.001Z,14.67
2018-08-10T22:55:12.745Z,14.63
2018-08-10T22:57:41.448Z,11.40
2018-08-10T23:00:10.200Z,14.87
2018-08-10T23:02:38.921Z,11.63
2018-08-10T23:05:07.992Z,13.57
2018-08-10T23:07:36.923Z,12.13
2018-08-10T23:10:08.251Z,10.97
2018-08-10T23:12:37.019Z,10.00
2018-08-10T23:15:06.880Z,10.40
2018-08-10T23:17:35.788Z,8.30
2018-08-10T23:20:06.936Z,10.17
2018-08-10T23:22:35.675Z,10.70
2018-08-10T23:25:06.631Z,11.17
2018-08-10T23:27:35.355Z,9.30
2018-08-10T23:30:06.236Z,12.90
2018-08-10T23:32:35.025Z,11.37
2018-08-10T23:35:03.998Z,13.87
2018-08-10T23:37:32.810Z,13.07
2018-08-10T23:40:01.451Z,17.13
2018-08-10T23:42:30.143Z,13.03
2018-08-10T23:44:59.012Z,12.37
2018-08-10T23:47:27.665Z,16.77
2018-08-10T23:49:56.358Z,17.20
2018-08-10T23:52:25.063Z,17.00
2018-08-10T23:54:53.707Z,13.50
2018-08-10T23:57:22.419Z,13.77
2018-08-10T23:59:51.105Z,13.57
